sensor_id;sensor_type;location;lat;lon;timestamp;temperature;humidity
38221;DHT22;24023;51.280;7.148;2023-05-07T00:00:12;14.3;93.5
38221;DHT22;24023;51.280;7.148;2023-05-07T00:05:07;14.4;93.1
38221;DHT22;24023;51.280;7.148;2023-05-07T00:10:09;14.4;93.1
38221;DHT22;24023;51.280;7.148;2023-05-07T00:15:09;14.4;92.7
38221;DHT22;24023;51.280;7.148;2023-05-07T00:20:09;14.4;92.7
38221;DHT22;24023;51.280;7.148;2023-05-07T00:25:08;14.3;92.8
38221;DHT22;24023;51.280;7.148;2023-05-07T00:30:11;14.3;92.8
38221;DHT22;24023;51.280;7.148;2023-05-07T00:35:07;14.3;92.8
38221;DHT22;24023;51.280;7.148;2023-05-07T00:40:09;14.5;92.7
38221;DHT22;24023;51.280;7.148;2023-05-07T00:45:11;14.5;92.7
38221;DHT22;24023;51.280;7.148;2023-05-07T00:50:09;14.2;93.2
38221;DHT22;24023;51.280;7.148;2023-05-07T00:55:07;14.2;93.2
38221;DHT22;24023;51.280;7.148;2023-05-07T01:00:14;14.2;93.2
38221;DHT22;24023;51.280;7.148;2023-05-07T01:05:09;14.3;92.6
38221;DHT22;24023;51.280;7.148;2023-05-07T01:10:09;14.4;92.5
38221;DHT22;24023;51.280;7.148;2023-05-07T01:15:08;14.4;92.5
38221;DHT22;24023;51.280;7.148;2023-05-07T01:20:10;14.6;92.3
38221;DHT22;24023;51.280;7.148;2023-05-07T01:25:08;14.6;92.3
38221;DHT22;24023;51.280;7.148;2023-05-07T01:30:10;14.4;92.2
38221;DHT22;24023;51.280;7.148;2023-05-07T01:35:11;14.4;92.2
38221;DHT22;24023;51.280;7.148;2023-05-07T01:40:08;14.4;92.2
38221;DHT22;24023;51.280;7.148;2023-05-07T01:45:10;14.2;92.4
38221;DHT22;24023;51.280;7.148;2023-05-07T01:50:09;14.2;92.4
38221;DHT22;24023;51.280;7.148;2023-05-07T01:55:07;14.2;92.3
38221;DHT22;24023;51.280;7.148;2023-05-07T02:00:11;14.2;92.3
38221;DHT22;24023;51.280;7.148;2023-05-07T02:05:07;14.2;92.3
38221;DHT22;24023;51.280;7.148;2023-05-07T02:10:09;14.1;92.4
38221;DHT22;24023;51.280;7.148;2023-05-07T02:15:08;14.1;92.4
38221;DHT22;24023;51.280;7.148;2023-05-07T02:20:13;14.0;92.7
38221;DHT22;24023;51.280;7.148;2023-05-07T02:25:07;14.0;92.7
38221;DHT22;24023;51.280;7.148;2023-05-07T02:30:10;14.0;92.7
38221;DHT22;24023;51.280;7.148;2023-05-07T02:35:07;14.1;92.4
38221;DHT22;24023;51.280;7.148;2023-05-07T02:40:10;14.1;92.4
38221;DHT22;24023;51.280;7.148;2023-05-07T02:45:11;13.8;92.1
38221;DHT22;24023;51.280;7.148;2023-05-07T02:50:08;13.8;92.1
38221;DHT22;24023;51.280;7.148;2023-05-07T02:55:07;13.8;92.1
38221;DHT22;24023;51.280;7.148;2023-05-07T03:00:12;13.7;92.1
38221;DHT22;24023;51.280;7.148;2023-05-07T03:05:08;13.7;92.1
38221;DHT22;24023;51.280;7.148;2023-05-07T03:10:09;13.8;91.9
38221;DHT22;24023;51.280;7.148;2023-05-07T03:15:09;13.8;91.9
38221;DHT22;24023;51.280;7.148;2023-05-07T03:20:09;13.7;92.3
38221;DHT22;24023;51.280;7.148;2023-05-07T03:25:07;13.7;92.3
38221;DHT22;24023;51.280;7.148;2023-05-07T03:30:10;13.7;92.3
38221;DHT22;24023;51.280;7.148;2023-05-07T03:35:06;13.8;91.8
38221;DHT22;24023;51.280;7.148;2023-05-07T03:40:09;13.8;91.8
38221;DHT22;24023;51.280;7.148;2023-05-07T03:45:10;13.8;92.0
38221;DHT22;24023;51.280;7.148;2023-05-07T03:50:08;13.8;92.0
38221;DHT22;24023;51.280;7.148;2023-05-07T03:55:09;13.8;92.0
38221;DHT22;24023;51.280;7.148;2023-05-07T04:00:13;13.7;92.0
38221;DHT22;24023;51.280;7.148;2023-05-07T04:05:07;13.7;92.0
38221;DHT22;24023;51.280;7.148;2023-05-07T04:10:09;13.4;91.9
38221;DHT22;24023;51.280;7.148;2023-05-07T04:15:08;13.4;91.9
38221;DHT22;24023;51.280;7.148;2023-05-07T04:20:09;13.4;91.9
38221;DHT22;24023;51.280;7.148;2023-05-07T04:25:16;13.5;91.6
38221;DHT22;24023;51.280;7.148;2023-05-07T04:30:10;13.5;91.6
38221;DHT22;24023;51.280;7.148;2023-05-07T04:35:07;13.5;91.6
38221;DHT22;24023;51.280;7.148;2023-05-07T04:40:08;13.5;91.6
38221;DHT22;24023;51.280;7.148;2023-05-07T04:45:11;13.9;91.2
38221;DHT22;24023;51.280;7.148;2023-05-07T04:50:15;13.9;91.2
38221;DHT22;24023;51.280;7.148;2023-05-07T04:55:07;13.9;91.2
38221;DHT22;24023;51.280;7.148;2023-05-07T05:00:11;14.1;91.4
38221;DHT22;24023;51.280;7.148;2023-05-07T05:05:07;14.1;91.4
38221;DHT22;24023;51.280;7.148;2023-05-07T05:10:08;14.5;91.1
38221;DHT22;24023;51.280;7.148;2023-05-07T05:15:09;14.5;91.1
38221;DHT22;24023;51.280;7.148;2023-05-07T05:20:08;14.5;91.1
38221;DHT22;24023;51.280;7.148;2023-05-07T05:25:07;14.6;91.1
38221;DHT22;24023;51.280;7.148;2023-05-07T05:30:10;14.6;91.1
38221;DHT22;24023;51.280;7.148;2023-05-07T05:35:08;14.8;90.6
38221;DHT22;24023;51.280;7.148;2023-05-07T05:40:08;14.8;90.6
38221;DHT22;24023;51.280;7.148;2023-05-07T05:45:10;14.8;90.6
38221;DHT22;24023;51.280;7.148;2023-05-07T05:50:09;15.0;89.5
38221;DHT22;24023;51.280;7.148;2023-05-07T05:55:07;15.0;89.5
38221;DHT22;24023;51.280;7.148;2023-05-07T06:00:12;15.3;90.1
38221;DHT22;24023;51.280;7.148;2023-05-07T06:05:07;15.3;87.5
38221;DHT22;24023;51.280;7.148;2023-05-07T06:10:08;15.6;87.0
38221;DHT22;24023;51.280;7.148;2023-05-07T06:15:08;15.6;87.0
38221;DHT22;24023;51.280;7.148;2023-05-07T06:20:08;15.7;86.6
38221;DHT22;24023;51.280;7.148;2023-05-07T06:25:07;15.7;85.9
38221;DHT22;24023;51.280;7.148;2023-05-07T06:30:10;15.7;85.9
38221;DHT22;24023;51.280;7.148;2023-05-07T06:35:07;15.8;86.0
38221;DHT22;24023;51.280;7.148;2023-05-07T06:40:09;15.8;86.0
38221;DHT22;24023;51.280;7.148;2023-05-07T06:45:11;15.8;86.0
38221;DHT22;24023;51.280;7.148;2023-05-07T06:50:09;16.0;84.8
38221;DHT22;24023;51.280;7.148;2023-05-07T06:55:07;16.0;87.0
38221;DHT22;24023;51.280;7.148;2023-05-07T07:00:12;16.0;87.0
38221;DHT22;24023;51.280;7.148;2023-05-07T07:05:07;16.0;87.0
38221;DHT22;24023;51.280;7.148;2023-05-07T07:10:09;16.5;88.2
38221;DHT22;24023;51.280;7.148;2023-05-07T07:15:08;16.6;83.5
38221;DHT22;24023;51.280;7.148;2023-05-07T07:20:08;16.7;86.5
38221;DHT22;24023;51.280;7.148;2023-05-07T07:25:07;16.7;84.1
38221;DHT22;24023;51.280;7.148;2023-05-07T07:30:09;16.7;86.3
38221;DHT22;24023;51.280;7.148;2023-05-07T07:35:08;16.9;84.1
38221;DHT22;24023;51.280;7.148;2023-05-07T07:40:09;16.9;83.8
38221;DHT22;24023;51.280;7.148;2023-05-07T07:45:10;16.9;83.8
38221;DHT22;24023;51.280;7.148;2023-05-07T07:50:08;16.9;83.8
38221;DHT22;24023;51.280;7.148;2023-05-07T07:55:07;17.3;83.7
38221;DHT22;24023;51.280;7.148;2023-05-07T08:00:13;17.5;81.5
38221;DHT22;24023;51.280;7.148;2023-05-07T08:05:07;17.5;81.5
38221;DHT22;24023;51.280;7.148;2023-05-07T08:10:08;17.7;79.1
38221;DHT22;24023;51.280;7.148;2023-05-07T08:15:09;17.9;79.6
38221;DHT22;24023;51.280;7.148;2023-05-07T08:20:09;17.9;79.8
38221;DHT22;24023;51.280;7.148;2023-05-07T08:25:07;17.8;82.0
38221;DHT22;24023;51.280;7.148;2023-05-07T08:30:10;17.9;80.4
38221;DHT22;24023;51.280;7.148;2023-05-07T08:35:07;18.0;80.5
38221;DHT22;24023;51.280;7.148;2023-05-07T08:40:08;18.0;82.7
38221;DHT22;24023;51.280;7.148;2023-05-07T08:45:11;18.1;81.9
38221;DHT22;24023;51.280;7.148;2023-05-07T08:50:08;18.3;84.2
38221;DHT22;24023;51.280;7.148;2023-05-07T08:55:07;18.5;76.6
38221;DHT22;24023;51.280;7.148;2023-05-07T09:00:12;18.7;76.4
38221;DHT22;24023;51.280;7.148;2023-05-07T09:05:07;18.8;78.7
38221;DHT22;24023;51.280;7.148;2023-05-07T09:10:09;18.8;75.9
38221;DHT22;24023;51.280;7.148;2023-05-07T09:15:08;18.8;75.9
38221;DHT22;24023;51.280;7.148;2023-05-07T09:20:08;18.9;79.9
38221;DHT22;24023;51.280;7.148;2023-05-07T09:25:07;19.0;76.6
38221;DHT22;24023;51.280;7.148;2023-05-07T09:30:10;19.0;78.0
38221;DHT22;24023;51.280;7.148;2023-05-07T09:35:14;19.0;75.3
38221;DHT22;24023;51.280;7.148;2023-05-07T09:40:20;19.0;78.7
38221;DHT22;24023;51.280;7.148;2023-05-07T09:45:10;19.1;75.1
38221;DHT22;24023;51.280;7.148;2023-05-07T09:50:08;19.2;77.3
38221;DHT22;24023;51.280;7.148;2023-05-07T09:55:07;19.3;74.4
38221;DHT22;24023;51.280;7.148;2023-05-07T10:00:12;19.3;74.4
38221;DHT22;24023;51.280;7.148;2023-05-07T10:10:08;19.9;74.5
38221;DHT22;24023;51.280;7.148;2023-05-07T10:15:09;20.0;72.1
38221;DHT22;24023;51.280;7.148;2023-05-07T10:20:09;20.0;72.1
38221;DHT22;24023;51.280;7.148;2023-05-07T10:25:11;20.1;72.2
38221;DHT22;24023;51.280;7.148;2023-05-07T10:30:15;20.3;76.4
38221;DHT22;24023;51.280;7.148;2023-05-07T10:35:10;20.3;72.4
38221;DHT22;24023;51.280;7.148;2023-05-07T10:40:10;20.3;72.4
38221;DHT22;24023;51.280;7.148;2023-05-07T10:45:12;19.7;75.5
38221;DHT22;24023;51.280;7.148;2023-05-07T10:50:23;19.7;70.8
38221;DHT22;24023;51.280;7.148;2023-05-07T10:55:22;20.5;70.0
38221;DHT22;24023;51.280;7.148;2023-05-07T11:00:41;21.0;70.4
38221;DHT22;24023;51.280;7.148;2023-05-07T11:05:22;21.5;64.6
38221;DHT22;24023;51.280;7.148;2023-05-07T11:10:08;21.0;68.6
38221;DHT22;24023;51.280;7.148;2023-05-07T11:15:09;20.6;70.8
38221;DHT22;24023;51.280;7.148;2023-05-07T11:20:09;20.2;68.3
38221;DHT22;24023;51.280;7.148;2023-05-07T11:25:07;19.9;73.1
38221;DHT22;24023;51.280;7.148;2023-05-07T11:30:10;19.8;76.4
38221;DHT22;24023;51.280;7.148;2023-05-07T11:35:07;19.8;76.4
38221;DHT22;24023;51.280;7.148;2023-05-07T11:40:09;19.4;76.7
38221;DHT22;24023;51.280;7.148;2023-05-07T11:45:09;19.4;79.1
38221;DHT22;24023;51.280;7.148;2023-05-07T11:50:08;19.3;77.0
38221;DHT22;24023;51.280;7.148;2023-05-07T11:55:07;19.3;77.0
38221;DHT22;24023;51.280;7.148;2023-05-07T12:00:15;19.1;80.0
38221;DHT22;24023;51.280;7.148;2023-05-07T12:05:07;19.1;80.0
38221;DHT22;24023;51.280;7.148;2023-05-07T12:10:11;19.1;80.0
38221;DHT22;24023;51.280;7.148;2023-05-07T12:15:09;18.8;80.6
38221;DHT22;24023;51.280;7.148;2023-05-07T12:20:08;18.8;80.6
38221;DHT22;24023;51.280;7.148;2023-05-07T12:25:07;18.8;80.0
38221;DHT22;24023;51.280;7.148;2023-05-07T12:30:10;18.8;80.0
38221;DHT22;24023;51.280;7.148;2023-05-07T12:35:07;18.8;80.0
38221;DHT22;24023;51.280;7.148;2023-05-07T12:40:09;18.6;82.9
38221;DHT22;24023;51.280;7.148;2023-05-07T12:45:11;18.6;85.2
38221;DHT22;24023;51.280;7.148;2023-05-07T12:50:08;18.6;85.2
38221;DHT22;24023;51.280;7.148;2023-05-07T12:55:08;18.5;84.5
38221;DHT22;24023;51.280;7.148;2023-05-07T13:00:12;18.6;86.6
38221;DHT22;24023;51.280;7.148;2023-05-07T13:05:07;18.6;86.6
38221;DHT22;24023;51.280;7.148;2023-05-07T13:10:09;18.7;84.3
38221;DHT22;24023;51.280;7.148;2023-05-07T13:15:08;18.7;84.3
38221;DHT22;24023;51.280;7.148;2023-05-07T13:20:09;18.8;85.4
38221;DHT22;24023;51.280;7.148;2023-05-07T13:25:08;18.8;85.4
38221;DHT22;24023;51.280;7.148;2023-05-07T13:30:09;18.7;83.2
38221;DHT22;24023;51.280;7.148;2023-05-07T13:35:07;18.7;81.0
38221;DHT22;24023;51.280;7.148;2023-05-07T13:40:09;18.7;82.5
38221;DHT22;24023;51.280;7.148;2023-05-07T13:45:09;18.7;82.5
38221;DHT22;24023;51.280;7.148;2023-05-07T13:50:09;18.4;82.4
38221;DHT22;24023;51.280;7.148;2023-05-07T13:55:07;18.3;79.8
38221;DHT22;24023;51.280;7.148;2023-05-07T14:00:12;18.1;82.4
38221;DHT22;24023;51.280;7.148;2023-05-07T14:05:07;18.1;82.4
38221;DHT22;24023;51.280;7.148;2023-05-07T14:10:10;18.1;82.4
38221;DHT22;24023;51.280;7.148;2023-05-07T14:15:08;18.0;83.3
38221;DHT22;24023;51.280;7.148;2023-05-07T14:20:08;18.0;84.7
38221;DHT22;24023;51.280;7.148;2023-05-07T14:25:07;17.9;86.9
38221;DHT22;24023;51.280;7.148;2023-05-07T14:30:09;17.8;89.2
38221;DHT22;24023;51.280;7.148;2023-05-07T14:35:07;17.8;89.2
38221;DHT22;24023;51.280;7.148;2023-05-07T14:40:09;17.7;90.3
38221;DHT22;24023;51.280;7.148;2023-05-07T14:45:11;17.7;90.3
38221;DHT22;24023;51.280;7.148;2023-05-07T14:50:08;17.5;90.6
38221;DHT22;24023;51.280;7.148;2023-05-07T14:55:07;17.5;90.6
38221;DHT22;24023;51.280;7.148;2023-05-07T15:00:12;17.5;90.6
38221;DHT22;24023;51.280;7.148;2023-05-07T15:05:07;17.3;91.0
38221;DHT22;24023;51.280;7.148;2023-05-07T15:10:08;17.3;91.0
38221;DHT22;24023;51.280;7.148;2023-05-07T15:15:09;17.2;92.4
38221;DHT22;24023;51.280;7.148;2023-05-07T15:20:09;17.2;92.4
38221;DHT22;24023;51.280;7.148;2023-05-07T15:25:07;17.2;92.4
38221;DHT22;24023;51.280;7.148;2023-05-07T15:30:12;16.9;93.5
38221;DHT22;24023;51.280;7.148;2023-05-07T15:35:08;16.9;93.5
38221;DHT22;24023;51.280;7.148;2023-05-07T15:40:08;16.7;94.9
38221;DHT22;24023;51.280;7.148;2023-05-07T15:45:09;16.7;94.9
38221;DHT22;24023;51.280;7.148;2023-05-07T15:50:09;16.6;95.7
38221;DHT22;24023;51.280;7.148;2023-05-07T15:55:07;16.6;95.7
38221;DHT22;24023;51.280;7.148;2023-05-07T16:00:13;16.7;95.7
38221;DHT22;24023;51.280;7.148;2023-05-07T16:05:10;16.7;95.7
38221;DHT22;24023;51.280;7.148;2023-05-07T16:10:10;16.8;95.7
38221;DHT22;24023;51.280;7.148;2023-05-07T16:15:09;16.8;95.7
38221;DHT22;24023;51.280;7.148;2023-05-07T16:20:10;17.0;96.0
38221;DHT22;24023;51.280;7.148;2023-05-07T16:25:07;17.0;96.0
38221;DHT22;24023;51.280;7.148;2023-05-07T16:30:10;17.1;95.7
38221;DHT22;24023;51.280;7.148;2023-05-07T16:35:07;17.1;95.7
38221;DHT22;24023;51.280;7.148;2023-05-07T16:40:09;17.1;95.7
38221;DHT22;24023;51.280;7.148;2023-05-07T16:45:10;17.0;94.7
38221;DHT22;24023;51.280;7.148;2023-05-07T16:50:09;17.0;94.7
38221;DHT22;24023;51.280;7.148;2023-05-07T16:55:06;16.9;94.3
38221;DHT22;24023;51.280;7.148;2023-05-07T17:00:12;16.9;94.3
38221;DHT22;24023;51.280;7.148;2023-05-07T17:05:07;16.9;94.3
38221;DHT22;24023;51.280;7.148;2023-05-07T17:10:08;16.9;95.3
38221;DHT22;24023;51.280;7.148;2023-05-07T17:15:08;16.9;95.3
38221;DHT22;24023;51.280;7.148;2023-05-07T17:20:09;16.8;95.7
38221;DHT22;24023;51.280;7.148;2023-05-07T17:25:07;16.8;95.7
38221;DHT22;24023;51.280;7.148;2023-05-07T17:30:12;16.7;95.7
38221;DHT22;24023;51.280;7.148;2023-05-07T17:35:06;16.7;95.7
38221;DHT22;24023;51.280;7.148;2023-05-07T17:40:08;16.5;95.6
38221;DHT22;24023;51.280;7.148;2023-05-07T17:45:10;16.5;95.6
38221;DHT22;24023;51.280;7.148;2023-05-07T17:50:11;16.5;95.6
38221;DHT22;24023;51.280;7.148;2023-05-07T17:55:07;16.4;95.9
38221;DHT22;24023;51.280;7.148;2023-05-07T18:00:12;16.4;95.9
38221;DHT22;24023;51.280;7.148;2023-05-07T18:05:07;16.3;95.6
38221;DHT22;24023;51.280;7.148;2023-05-07T18:10:09;16.3;95.6
38221;DHT22;24023;51.280;7.148;2023-05-07T18:15:08;16.3;95.6
38221;DHT22;24023;51.280;7.148;2023-05-07T18:20:11;16.2;95.7
38221;DHT22;24023;51.280;7.148;2023-05-07T18:25:07;16.2;95.7
38221;DHT22;24023;51.280;7.148;2023-05-07T18:30:10;16.1;95.9
38221;DHT22;24023;51.280;7.148;2023-05-07T18:35:07;16.1;95.9
38221;DHT22;24023;51.280;7.148;2023-05-07T18:40:08;16.1;95.9
38221;DHT22;24023;51.280;7.148;2023-05-07T18:45:11;16.1;95.5
38221;DHT22;24023;51.280;7.148;2023-05-07T18:50:09;16.1;95.5
38221;DHT22;24023;51.280;7.148;2023-05-07T18:55:06;16.1;95.2
38221;DHT22;24023;51.280;7.148;2023-05-07T19:00:13;16.1;95.2
38221;DHT22;24023;51.280;7.148;2023-05-07T19:05:07;16.1;95.2
38221;DHT22;24023;51.280;7.148;2023-05-07T19:10:08;16.0;95.8
38221;DHT22;24023;51.280;7.148;2023-05-07T19:15:09;16.0;95.8
38221;DHT22;24023;51.280;7.148;2023-05-07T19:20:09;16.0;95.8
38221;DHT22;24023;51.280;7.148;2023-05-07T19:25:08;15.8;96.3
38221;DHT22;24023;51.280;7.148;2023-05-07T19:30:10;15.8;96.3
38221;DHT22;24023;51.280;7.148;2023-05-07T19:35:07;15.8;96.2
38221;DHT22;24023;51.280;7.148;2023-05-07T19:40:10;15.8;96.2
38221;DHT22;24023;51.280;7.148;2023-05-07T19:45:10;15.8;96.2
38221;DHT22;24023;51.280;7.148;2023-05-07T19:50:09;15.9;96.6
38221;DHT22;24023;51.280;7.148;2023-05-07T19:55:07;15.9;96.6
38221;DHT22;24023;51.280;7.148;2023-05-07T20:00:12;15.9;96.4
38221;DHT22;24023;51.280;7.148;2023-05-07T20:05:07;15.9;96.4
38221;DHT22;24023;51.280;7.148;2023-05-07T20:10:08;15.9;96.4
38221;DHT22;24023;51.280;7.148;2023-05-07T20:15:09;15.7;96.1
38221;DHT22;24023;51.280;7.148;2023-05-07T20:20:09;15.6;96.5
38221;DHT22;24023;51.280;7.148;2023-05-07T20:25:08;15.6;96.5
38221;DHT22;24023;51.280;7.148;2023-05-07T20:30:11;15.6;96.7
38221;DHT22;24023;51.280;7.148;2023-05-07T20:35:06;15.6;96.7
38221;DHT22;24023;51.280;7.148;2023-05-07T20:40:08;15.4;96.6
38221;DHT22;24023;51.280;7.148;2023-05-07T20:45:11;15.4;96.6
38221;DHT22;24023;51.280;7.148;2023-05-07T20:50:08;15.4;96.6
38221;DHT22;24023;51.280;7.148;2023-05-07T20:55:08;15.5;97.0
38221;DHT22;24023;51.280;7.148;2023-05-07T21:00:11;15.5;97.0
38221;DHT22;24023;51.280;7.148;2023-05-07T21:05:07;15.4;96.9
38221;DHT22;24023;51.280;7.148;2023-05-07T21:10:09;15.4;96.9
38221;DHT22;24023;51.280;7.148;2023-05-07T21:15:09;15.4;96.9
38221;DHT22;24023;51.280;7.148;2023-05-07T21:20:09;15.3;96.8
38221;DHT22;24023;51.280;7.148;2023-05-07T21:25:07;15.3;96.8
38221;DHT22;24023;51.280;7.148;2023-05-07T21:30:10;15.2;96.4
38221;DHT22;24023;51.280;7.148;2023-05-07T21:35:07;15.2;96.4
38221;DHT22;24023;51.280;7.148;2023-05-07T21:40:08;15.2;96.4
38221;DHT22;24023;51.280;7.148;2023-05-07T21:45:10;15.2;96.0
38221;DHT22;24023;51.280;7.148;2023-05-07T21:50:08;15.2;96.0
38221;DHT22;24023;51.280;7.148;2023-05-07T21:55:08;15.1;96.5
38221;DHT22;24023;51.280;7.148;2023-05-07T22:00:13;15.1;96.5
38221;DHT22;24023;51.280;7.148;2023-05-07T22:05:08;15.1;96.5
38221;DHT22;24023;51.280;7.148;2023-05-07T22:10:08;15.2;96.4
38221;DHT22;24023;51.280;7.148;2023-05-07T22:15:08;15.2;96.4
38221;DHT22;24023;51.280;7.148;2023-05-07T22:20:09;15.5;95.8
38221;DHT22;24023;51.280;7.148;2023-05-07T22:25:07;15.5;95.8
38221;DHT22;24023;51.280;7.148;2023-05-07T22:30:09;15.5;95.8
38221;DHT22;24023;51.280;7.148;2023-05-07T22:35:08;15.5;95.6
38221;DHT22;24023;51.280;7.148;2023-05-07T22:40:08;15.5;95.6
38221;DHT22;24023;51.280;7.148;2023-05-07T22:45:11;15.5;95.5
38221;DHT22;24023;51.280;7.148;2023-05-07T22:50:08;15.5;95.5
38221;DHT22;24023;51.280;7.148;2023-05-07T22:55:07;15.5;95.5
38221;DHT22;24023;51.280;7.148;2023-05-07T23:00:11;15.1;95.8
38221;DHT22;24023;51.280;7.148;2023-05-07T23:05:07;15.1;95.8
38221;DHT22;24023;51.280;7.148;2023-05-07T23:10:08;15.1;95.8
38221;DHT22;24023;51.280;7.148;2023-05-07T23:15:08;15.1;95.8
38221;DHT22;24023;51.280;7.148;2023-05-07T23:20:08;15.0;95.4
38221;DHT22;24023;51.280;7.148;2023-05-07T23:25:08;15.0;95.4
38221;DHT22;24023;51.280;7.148;2023-05-07T23:30:10;15.3;94.3
38221;DHT22;24023;51.280;7.148;2023-05-07T23:35:07;15.3;94.3
38221;DHT22;24023;51.280;7.148;2023-05-07T23:40:08;15.3;94.3
38221;DHT22;24023;51.280;7.148;2023-05-07T23:45:09;14.7;95.7
38221;DHT22;24023;51.280;7.148;2023-05-07T23:50:08;14.6;95.9
38221;DHT22;24023;51.280;7.148;2023-05-07T23:55:07;14.6;95.9
